createdAt,value
2018-09-23T00:01:32.173Z,11.70
2018-09-23T00:04:00.707Z,11.70
2018-09-23T00:06:29.258Z,11.70
2018-09-23T00:08:58.299Z,11.70
2018-09-23T00:11:26.769Z,11.70
2018-09-23T00:13:55.316Z,11.70
2018-09-23T00:16:23.888Z,11.70
2018-09-23T00:18:52.411Z,11.70
2018-09-23T00:21:20.915Z,11.70
2018-09-23T00:23:49.463Z,11.70
2018-09-23T00:26:18.026Z,11.70
2018-09-23T00:28:46.554Z,11.70
2018-09-23T00:31:15.120Z,11.70
2018-09-23T00:33:43.646Z,11.70
2018-09-23T00:36:12.158Z,11.70
2018-09-23T00:38:40.717Z,11.70
2018-09-23T00:41:09.195Z,11.70
2018-09-23T00:43:37.763Z,11.70
2018-09-23T00:46:06.299Z,11.70
2018-09-23T00:48:34.872Z,11.70
2018-09-23T00:51:03.329Z,11.70
2018-09-23T00:53:31.825Z,11.70
2018-09-23T00:56:00.366Z,11.70
2018-09-23T00:58:28.844Z,11.70
2018-09-23T01:00:58.101Z,11.70
2018-09-23T01:03:27.187Z,11.70
2018-09-23T01:05:56.686Z,11.70
2018-09-23T01:08:25.210Z,11.70
2018-09-23T01:10:53.725Z,11.70
2018-09-23T01:13:22.669Z,11.70
2018-09-23T01:15:51.719Z,11.70
2018-09-23T01:18:20.241Z,11.70
2018-09-23T01:20:48.796Z,11.70
2018-09-23T01:23:17.306Z,11.70
2018-09-23T01:25:45.816Z,11.70
2018-09-23T01:28:14.323Z,11.80
2018-09-23T01:30:42.805Z,11.80
2018-09-23T01:33:11.334Z,11.80
2018-09-23T01:35:39.932Z,11.80
2018-09-23T01:38:08.458Z,11.80
2018-09-23T01:40:36.995Z,11.80
2018-09-23T01:43:05.523Z,11.80
2018-09-23T01:45:34.018Z,11.80
2018-09-23T01:48:02.568Z,11.80
2018-09-23T01:50:31.053Z,11.80
2018-09-23T01:52:59.614Z,11.80
2018-09-23T01:55:28.092Z,11.80
2018-09-23T01:57:56.583Z,11.80
2018-09-23T02:00:25.082Z,11.80
2018-09-23T02:02:53.613Z,11.80
2018-09-23T02:05:22.158Z,11.90
2018-09-23T02:07:50.843Z,11.90
2018-09-23T02:10:20.004Z,11.90
2018-09-23T02:12:49.130Z,11.90
2018-09-23T02:15:17.629Z,11.90
2018-09-23T02:17:46.158Z,11.90
2018-09-23T02:20:14.680Z,11.90
2018-09-23T02:22:43.173Z,12.00
2018-09-23T02:25:11.679Z,11.90
2018-09-23T02:27:40.241Z,11.90
2018-09-23T02:30:08.723Z,11.90
2018-09-23T02:32:43.436Z,12.00
2018-09-23T02:35:11.947Z,11.90
2018-09-23T02:37:40.512Z,12.00
2018-09-23T02:40:09.037Z,12.00
2018-09-23T02:42:37.521Z,12.00
2018-09-23T02:45:06.653Z,12.00
2018-09-23T02:47:35.376Z,12.00
2018-09-23T02:50:03.848Z,12.00
2018-09-23T02:52:32.368Z,12.00
2018-09-23T02:55:00.909Z,12.00
2018-09-23T02:57:29.390Z,12.00
2018-09-23T02:59:57.941Z,12.00
2018-09-23T03:02:26.479Z,12.00
2018-09-23T03:04:55.057Z,12.00
2018-09-23T03:07:23.631Z,12.00
2018-09-23T03:09:52.172Z,12.00
2018-09-23T03:12:20.689Z,12.00
2018-09-23T03:14:49.185Z,12.10
2018-09-23T03:17:18.838Z,12.10
2018-09-23T03:19:47.412Z,12.10
2018-09-23T03:22:15.904Z,12.10
2018-09-23T03:28:17.362Z,12.10
2018-09-23T03:30:45.908Z,12.10
2018-09-23T03:33:14.445Z,12.10
2018-09-23T03:35:42.942Z,12.10
2018-09-23T03:38:11.436Z,12.10
2018-09-23T03:40:39.939Z,12.10
2018-09-23T03:43:08.482Z,12.00
2018-09-23T03:45:36.974Z,12.00
2018-09-23T03:48:05.504Z,12.00
2018-09-23T03:50:34.064Z,12.00
2018-09-23T03:53:02.656Z,12.00
2018-09-23T03:55:31.174Z,12.00
2018-09-23T03:58:02.808Z,12.00
2018-09-23T04:00:31.321Z,12.00
2018-09-23T04:02:59.793Z,12.00
2018-09-23T04:05:28.305Z,12.00
2018-09-23T04:07:56.890Z,12.00
2018-09-23T04:10:25.414Z,12.00
2018-09-23T04:12:53.926Z,12.00
2018-09-23T04:15:22.423Z,11.90
2018-09-23T04:17:50.947Z,11.90
2018-09-23T04:20:19.465Z,11.90
2018-09-23T04:22:51.252Z,11.90
2018-09-23T04:25:21.050Z,11.90
2018-09-23T04:27:49.933Z,11.90
2018-09-23T04:30:20.078Z,11.90
2018-09-23T04:32:48.687Z,12.00
2018-09-23T04:35:17.752Z,12.00
2018-09-23T04:37:47.140Z,12.00
2018-09-23T04:40:16.552Z,12.00
2018-09-23T04:42:45.085Z,12.00
2018-09-23T04:45:13.621Z,12.00
2018-09-23T04:47:42.143Z,12.00
2018-09-23T04:50:10.709Z,12.00
2018-09-23T04:52:39.323Z,12.00
2018-09-23T04:55:07.910Z,12.00
2018-09-23T04:57:37.093Z,12.00
2018-09-23T05:00:05.649Z,12.00
2018-09-23T05:02:34.201Z,12.00
2018-09-23T05:05:02.768Z,12.00
2018-09-23T05:07:31.242Z,12.00
2018-09-23T05:09:59.935Z,11.90
2018-09-23T05:12:28.526Z,11.90
2018-09-23T05:14:57.381Z,11.90
2018-09-23T05:17:25.952Z,11.90
2018-09-23T05:19:54.484Z,11.90
2018-09-23T05:22:23.087Z,11.90
2018-09-23T05:24:51.602Z,11.90
2018-09-23T05:27:20.620Z,11.90
2018-09-23T05:29:49.707Z,11.90
2018-09-23T05:32:18.220Z,12.00
2018-09-23T05:34:47.429Z,12.10
2018-09-23T05:37:15.953Z,12.10
2018-09-23T05:39:44.556Z,12.10
2018-09-23T05:42:13.154Z,12.10
2018-09-23T05:44:41.705Z,12.10
2018-09-23T05:47:10.246Z,12.10
2018-09-23T05:49:38.808Z,12.10
2018-09-23T05:52:07.482Z,12.10
2018-09-23T05:54:36.012Z,12.10
2018-09-23T05:57:04.518Z,12.10
2018-09-23T05:59:33.023Z,12.20
2018-09-23T06:02:01.500Z,12.30
2018-09-23T06:04:30.041Z,12.30
2018-09-23T06:06:58.588Z,12.30
2018-09-23T06:09:27.101Z,12.40
2018-09-23T06:11:55.613Z,12.40
2018-09-23T06:14:24.135Z,12.40
2018-09-23T06:16:52.620Z,12.50
2018-09-23T06:19:21.195Z,12.60
2018-09-23T06:21:49.702Z,12.60
2018-09-23T06:24:18.297Z,12.60
2018-09-23T06:26:46.834Z,12.60
2018-09-23T06:29:15.366Z,12.70
2018-09-23T06:31:43.873Z,12.70
2018-09-23T06:34:12.425Z,12.70
2018-09-23T06:36:40.944Z,12.80
2018-09-23T06:39:10.259Z,12.80
2018-09-23T06:41:38.798Z,12.90
2018-09-23T06:44:07.312Z,12.90
2018-09-23T06:46:35.794Z,12.90
2018-09-23T06:49:04.297Z,12.90
2018-09-23T06:51:32.824Z,13.00
2018-09-23T06:54:01.379Z,13.00
2018-09-23T06:56:30.032Z,13.00
2018-09-23T06:58:58.543Z,13.10
2018-09-23T07:01:27.134Z,13.10
2018-09-23T07:03:55.646Z,13.10
2018-09-23T07:06:24.186Z,13.20
2018-09-23T07:08:52.703Z,13.20
2018-09-23T07:11:21.259Z,13.20
2018-09-23T07:13:49.816Z,13.30
2018-09-23T07:16:18.315Z,13.40
2018-09-23T07:18:46.845Z,13.40
2018-09-23T07:21:15.347Z,13.40
2018-09-23T07:23:43.905Z,13.40
2018-09-23T07:26:12.333Z,13.40
2018-09-23T07:28:40.854Z,13.40
2018-09-23T07:31:09.423Z,13.40
2018-09-23T07:33:37.963Z,13.40
2018-09-23T07:36:06.440Z,13.50
2018-09-23T07:38:34.954Z,13.60
2018-09-23T07:41:03.511Z,13.60
2018-09-23T07:43:31.994Z,13.70
2018-09-23T07:46:00.497Z,13.80
2018-09-23T07:48:30.102Z,13.80
2018-09-23T07:50:58.604Z,13.90
2018-09-23T07:53:27.368Z,13.90
2018-09-23T07:55:55.867Z,13.90
2018-09-23T07:58:24.388Z,13.90
2018-09-23T08:00:52.935Z,14.00
2018-09-23T08:03:21.481Z,14.10
2018-09-23T08:05:50.001Z,14.20
2018-09-23T08:08:18.514Z,14.30
2018-09-23T08:10:47.131Z,14.40
2018-09-23T08:13:15.794Z,14.40
2018-09-23T08:15:44.294Z,14.40
2018-09-23T08:18:12.850Z,14.50
2018-09-23T08:20:41.469Z,14.50
2018-09-23T08:23:10.073Z,14.70
2018-09-23T08:25:38.685Z,14.80
2018-09-23T08:28:07.111Z,14.90
2018-09-23T08:30:35.644Z,15.10
2018-09-23T08:33:04.241Z,15.10
2018-09-23T08:35:32.770Z,15.20
2018-09-23T08:38:01.316Z,15.20
2018-09-23T08:40:29.882Z,15.30
2018-09-23T08:42:58.436Z,15.30
2018-09-23T08:45:26.970Z,15.30
2018-09-23T08:47:55.507Z,15.30
2018-09-23T08:50:24.086Z,15.20
2018-09-23T08:52:52.682Z,15.10
2018-09-23T08:55:21.215Z,15.00
2018-09-23T08:57:49.815Z,14.90
2018-09-23T09:00:18.304Z,14.80
2018-09-23T09:02:46.826Z,14.70
2018-09-23T09:05:15.336Z,14.70
2018-09-23T09:07:43.848Z,14.60
2018-09-23T09:10:12.344Z,14.70
2018-09-23T09:12:40.838Z,14.70
2018-09-23T09:15:09.376Z,14.70
2018-09-23T09:17:37.954Z,14.70
2018-09-23T09:20:06.928Z,14.70
2018-09-23T09:22:35.767Z,14.80
2018-09-23T09:25:04.301Z,14.90
2018-09-23T09:27:32.818Z,14.80
2018-09-23T09:30:01.300Z,14.80
2018-09-23T09:32:29.790Z,15.00
2018-09-23T09:34:58.333Z,15.10
2018-09-23T09:37:26.813Z,15.10
2018-09-23T09:39:55.317Z,15.20
2018-09-23T09:42:23.907Z,15.30
2018-09-23T09:44:52.486Z,15.20
2018-09-23T09:47:21.008Z,15.20
2018-09-23T09:49:49.493Z,15.10
2018-09-23T09:52:18.014Z,15.10
2018-09-23T09:54:46.516Z,15.10
2018-09-23T09:57:15.107Z,14.90
2018-09-23T09:59:43.627Z,14.80
2018-09-23T10:02:12.178Z,14.80
2018-09-23T10:04:40.818Z,14.70
2018-09-23T10:07:09.351Z,14.70
2018-09-23T10:09:38.392Z,14.70
2018-09-23T10:12:06.919Z,14.70
2018-09-23T10:14:35.441Z,14.60
2018-09-23T10:17:03.968Z,14.50
2018-09-23T10:19:32.491Z,14.40
2018-09-23T10:22:01.591Z,14.30
2018-09-23T10:24:30.979Z,14.30
2018-09-23T10:26:59.488Z,14.40
2018-09-23T10:29:28.016Z,14.40
2018-09-23T10:31:56.505Z,14.30
2018-09-23T10:34:25.010Z,14.20
2018-09-23T10:36:53.543Z,14.00
2018-09-23T10:39:22.092Z,13.80
2018-09-23T10:41:50.691Z,13.70
2018-09-23T10:44:19.219Z,13.60
2018-09-23T10:46:47.726Z,13.60
2018-09-23T10:49:17.027Z,13.50
2018-09-23T10:51:45.571Z,13.50
2018-09-23T10:54:14.145Z,13.40
2018-09-23T10:56:42.634Z,13.40
2018-09-23T10:59:11.126Z,13.30
2018-09-23T11:01:39.659Z,13.30
2018-09-23T11:04:08.878Z,13.20
2018-09-23T11:06:37.429Z,13.20
2018-09-23T11:09:06.876Z,13.20
2018-09-23T11:11:35.405Z,13.30
2018-09-23T11:14:03.958Z,13.40
2018-09-23T11:16:32.482Z,13.50
2018-09-23T11:19:01.015Z,13.50
2018-09-23T11:21:29.555Z,13.40
2018-09-23T11:23:58.144Z,13.30
2018-09-23T11:26:26.661Z,13.20
2018-09-23T11:28:55.203Z,13.20
2018-09-23T11:31:23.706Z,13.20
2018-09-23T11:33:52.270Z,13.20
2018-09-23T11:36:20.822Z,13.20
2018-09-23T11:38:49.323Z,13.20
2018-09-23T11:41:18.811Z,13.30
2018-09-23T11:43:47.343Z,13.60
2018-09-23T11:46:15.855Z,13.60
2018-09-23T11:48:44.469Z,13.70
2018-09-23T11:51:12.999Z,13.60
2018-09-23T11:53:41.493Z,13.60
2018-09-23T11:56:10.038Z,13.60
2018-09-23T11:58:39.680Z,13.50
2018-09-23T12:01:08.458Z,13.40
2018-09-23T12:03:36.993Z,13.40
2018-09-23T12:06:05.553Z,13.30
2018-09-23T12:08:34.073Z,13.10
2018-09-23T12:11:02.715Z,13.10
2018-09-23T12:13:31.191Z,13.00
2018-09-23T12:15:59.732Z,12.90
2018-09-23T12:18:28.349Z,12.80
2018-09-23T12:20:56.829Z,12.70
2018-09-23T12:23:25.381Z,12.60
2018-09-23T12:25:53.939Z,12.50
2018-09-23T12:28:22.674Z,12.50
2018-09-23T12:30:51.258Z,12.60
2018-09-23T12:33:19.862Z,12.70
2018-09-23T12:35:48.361Z,12.80
2018-09-23T12:38:16.961Z,12.80
2018-09-23T12:40:45.509Z,12.80
2018-09-23T12:43:14.032Z,12.90
2018-09-23T12:45:42.539Z,12.80
2018-09-23T12:48:11.045Z,12.70
2018-09-23T12:50:39.666Z,12.60
2018-09-23T12:53:08.235Z,12.60
2018-09-23T12:55:37.968Z,12.50
2018-09-23T12:58:06.487Z,12.50
2018-09-23T13:00:35.062Z,12.50
2018-09-23T13:03:03.638Z,12.60
2018-09-23T13:05:32.206Z,12.60
2018-09-23T13:08:00.740Z,12.60
2018-09-23T13:10:29.261Z,12.50
2018-09-23T13:12:57.828Z,12.50
2018-09-23T13:15:26.314Z,12.50
2018-09-23T13:17:54.894Z,12.50
2018-09-23T13:20:23.416Z,12.60
2018-09-23T13:22:51.953Z,12.60
2018-09-23T13:25:20.447Z,12.60
2018-09-23T13:27:49.017Z,12.60
2018-09-23T13:30:17.607Z,12.50
2018-09-23T13:32:47.197Z,12.50
2018-09-23T13:35:15.994Z,12.60
2018-09-23T13:37:44.584Z,12.70
2018-09-23T13:40:13.139Z,12.70
2018-09-23T13:42:41.714Z,12.70
2018-09-23T13:45:10.298Z,12.70
2018-09-23T13:47:38.806Z,12.70
2018-09-23T13:50:07.357Z,12.70
2018-09-23T13:52:36.368Z,12.80
2018-09-23T13:55:04.987Z,12.80
2018-09-23T13:57:33.521Z,12.70
2018-09-23T14:00:02.081Z,12.60
2018-09-23T14:02:30.568Z,12.50
2018-09-23T14:04:59.079Z,12.50
2018-09-23T14:07:27.615Z,12.40
2018-09-23T14:09:56.175Z,12.40
2018-09-23T14:12:24.734Z,12.40
2018-09-23T14:14:53.273Z,12.30
2018-09-23T14:17:22.185Z,12.30
2018-09-23T14:19:50.796Z,12.30
2018-09-23T14:22:19.318Z,12.30
2018-09-23T14:24:47.886Z,12.20
2018-09-23T14:27:16.448Z,12.10
2018-09-23T14:29:45.019Z,12.10
2018-09-23T14:32:13.533Z,12.10
2018-09-23T14:34:42.115Z,12.00
2018-09-23T14:37:10.619Z,12.10
2018-09-23T14:39:39.179Z,12.10
2018-09-23T14:42:07.707Z,12.00
2018-09-23T14:44:36.799Z,12.00
2018-09-23T14:47:05.373Z,11.90
2018-09-23T14:49:33.929Z,11.90
2018-09-23T14:52:02.472Z,11.90
2018-09-23T14:54:31.065Z,11.80
2018-09-23T14:56:59.603Z,11.80
2018-09-23T14:59:31.418Z,11.70
2018-09-23T15:02:00.037Z,11.70
2018-09-23T15:04:28.558Z,11.60
2018-09-23T15:06:57.121Z,11.60
2018-09-23T15:09:25.701Z,11.60
2018-09-23T15:11:54.218Z,11.60
2018-09-23T15:14:22.768Z,11.50
2018-09-23T15:16:51.340Z,11.60
2018-09-23T15:19:19.967Z,11.60
2018-09-23T15:21:48.570Z,11.60
2018-09-23T15:24:17.085Z,11.60
2018-09-23T15:26:45.630Z,11.60
2018-09-23T15:29:14.201Z,11.70
2018-09-23T15:31:42.728Z,11.70
2018-09-23T15:34:11.226Z,11.70
2018-09-23T15:36:39.747Z,11.70
2018-09-23T15:39:08.784Z,11.70
2018-09-23T15:41:37.708Z,11.60
2018-09-23T15:44:06.426Z,11.50
2018-09-23T15:46:34.927Z,11.50
2018-09-23T15:49:03.561Z,11.30
2018-09-23T15:51:32.128Z,11.10
2018-09-23T15:54:00.685Z,11.00
2018-09-23T15:56:29.203Z,10.90
2018-09-23T15:58:57.691Z,10.90
2018-09-23T16:01:26.803Z,10.80
2018-09-23T16:03:55.332Z,10.80
2018-09-23T16:06:23.877Z,10.90
2018-09-23T16:08:52.397Z,10.90
2018-09-23T16:11:21.003Z,10.90
2018-09-23T16:13:49.547Z,10.80
2018-09-23T16:16:18.052Z,10.90
2018-09-23T16:18:46.674Z,10.80
2018-09-23T16:21:15.104Z,10.90
2018-09-23T16:23:43.732Z,11.00
2018-09-23T16:26:12.208Z,11.10
2018-09-23T16:28:40.750Z,11.10
2018-09-23T16:31:09.274Z,11.20
2018-09-23T16:33:37.758Z,11.30
2018-09-23T16:36:07.674Z,11.30
2018-09-23T16:38:37.016Z,11.30
2018-09-23T16:41:06.404Z,11.20
2018-09-23T16:43:34.985Z,11.20
2018-09-23T16:46:03.615Z,11.10
2018-09-23T16:48:32.120Z,11.10
2018-09-23T16:51:00.627Z,11.00
2018-09-23T16:53:29.198Z,11.00
2018-09-23T16:55:58.585Z,10.80
2018-09-23T16:58:27.069Z,10.70
2018-09-23T17:00:56.247Z,10.70
2018-09-23T17:03:24.758Z,10.60
2018-09-23T17:05:53.277Z,10.60
2018-09-23T17:08:21.844Z,10.60
2018-09-23T17:10:50.396Z,10.50
2018-09-23T17:13:18.974Z,10.50
2018-09-23T17:15:47.452Z,10.60
2018-09-23T17:18:15.973Z,10.50
2018-09-23T17:20:44.505Z,10.50
2018-09-23T17:23:13.024Z,10.50
2018-09-23T17:25:41.566Z,10.50
2018-09-23T17:28:10.140Z,10.50
2018-09-23T17:30:38.593Z,10.50
2018-09-23T17:33:07.078Z,10.40
2018-09-23T17:35:35.585Z,10.40
2018-09-23T17:38:04.086Z,10.30
2018-09-23T17:40:32.596Z,10.30
2018-09-23T17:43:01.146Z,10.30
2018-09-23T17:45:29.716Z,10.30
2018-09-23T17:47:58.270Z,10.30
2018-09-23T17:50:26.827Z,10.30
2018-09-23T17:52:55.365Z,10.30
2018-09-23T17:55:23.973Z,10.30
2018-09-23T17:57:52.472Z,10.30
2018-09-23T18:00:21.002Z,10.30
2018-09-23T18:02:49.489Z,10.30
2018-09-23T18:05:18.538Z,10.40
2018-09-23T18:07:47.028Z,10.30
2018-09-23T18:10:15.578Z,10.30
2018-09-23T18:12:44.109Z,10.30
2018-09-23T18:15:12.735Z,10.30
2018-09-23T18:17:41.211Z,10.30
2018-09-23T18:20:09.745Z,10.30
2018-09-23T18:22:38.262Z,10.20
2018-09-23T18:25:06.888Z,10.30
2018-09-23T18:27:35.471Z,10.20
2018-09-23T18:30:03.998Z,10.20
2018-09-23T18:32:32.537Z,10.20
2018-09-23T18:35:01.204Z,10.20
2018-09-23T18:37:29.929Z,10.20
2018-09-23T18:39:58.380Z,10.20
2018-09-23T18:42:26.917Z,10.20
2018-09-23T18:44:55.484Z,10.20
2018-09-23T18:47:24.044Z,10.20
2018-09-23T18:49:52.630Z,10.20
2018-09-23T18:52:21.202Z,10.20
2018-09-23T18:54:54.995Z,10.20
2018-09-23T18:57:23.479Z,10.20
2018-09-23T18:59:52.044Z,10.20
2018-09-23T19:02:20.564Z,10.20
2018-09-23T19:04:49.130Z,10.20
2018-09-23T19:07:17.686Z,10.20
2018-09-23T19:09:46.233Z,10.20
2018-09-23T19:12:14.742Z,10.20
2018-09-23T19:14:43.276Z,10.20
2018-09-23T19:17:11.776Z,10.10
2018-09-23T19:19:45.720Z,10.10
2018-09-23T19:22:19.704Z,10.10
2018-09-23T19:24:48.284Z,10.10
2018-09-23T19:27:16.745Z,10.10
2018-09-23T19:29:45.305Z,10.10
2018-09-23T19:32:13.792Z,10.10
2018-09-23T19:34:42.351Z,10.00
2018-09-23T19:37:10.918Z,10.00
2018-09-23T19:39:39.514Z,10.00
2018-09-23T19:42:08.189Z,10.00
2018-09-23T19:44:36.710Z,10.00
2018-09-23T19:47:05.225Z,9.90
2018-09-23T19:49:34.667Z,9.90
2018-09-23T19:52:03.181Z,9.90
2018-09-23T19:54:31.739Z,9.90
2018-09-23T19:57:00.261Z,9.90
2018-09-23T19:59:28.770Z,9.90
2018-09-23T20:01:57.277Z,9.90
2018-09-23T20:04:25.799Z,9.90
2018-09-23T20:06:54.351Z,9.90
2018-09-23T20:09:22.875Z,9.90
2018-09-23T20:11:51.374Z,9.90
2018-09-23T20:14:19.921Z,9.90
2018-09-23T20:16:48.415Z,9.90
2018-09-23T20:19:17.039Z,9.90
2018-09-23T20:21:45.514Z,9.80
2018-09-23T20:24:14.054Z,9.80
2018-09-23T20:26:42.603Z,9.80
2018-09-23T20:29:13.872Z,9.80
2018-09-23T20:31:42.362Z,9.80
2018-09-23T20:34:10.922Z,9.80
2018-09-23T20:36:39.414Z,9.80
2018-09-23T20:39:09.310Z,9.80
2018-09-23T20:41:37.795Z,9.80
2018-09-23T20:44:06.330Z,9.80
2018-09-23T20:46:34.849Z,9.80
2018-09-23T20:49:03.425Z,9.70
2018-09-23T20:51:31.903Z,9.70
2018-09-23T20:54:00.426Z,9.70
2018-09-23T20:56:28.921Z,9.60
2018-09-23T20:58:57.424Z,9.60
2018-09-23T21:01:25.886Z,9.50
2018-09-23T21:03:54.436Z,9.40
2018-09-23T21:06:22.972Z,9.30
2018-09-23T21:08:51.435Z,9.20
2018-09-23T21:11:19.960Z,9.20
2018-09-23T21:14:19.213Z,9.10
2018-09-23T21:16:47.703Z,9.00
2018-09-23T21:19:16.155Z,9.00
2018-09-23T21:21:45.280Z,8.90
2018-09-23T21:24:13.834Z,8.90
2018-09-23T21:26:42.355Z,8.90
2018-09-23T21:29:10.847Z,8.80
2018-09-23T21:31:39.384Z,8.80
2018-09-23T21:34:07.940Z,8.70
2018-09-23T21:36:36.437Z,8.70
2018-09-23T21:39:06.655Z,8.60
2018-09-23T21:41:35.175Z,8.60
2018-09-23T21:44:03.669Z,8.60
2018-09-23T21:46:32.200Z,8.50
2018-09-23T21:49:00.756Z,8.60
2018-09-23T21:51:29.557Z,8.50
2018-09-23T21:53:58.347Z,8.50
2018-09-23T21:56:27.249Z,8.50
2018-09-23T21:58:55.791Z,8.50
2018-09-23T22:01:24.306Z,8.50
2018-09-23T22:03:52.862Z,8.40
2018-09-23T22:06:21.355Z,8.40
2018-09-23T22:08:49.887Z,8.40
2018-09-23T22:11:18.401Z,8.40
2018-09-23T22:13:46.889Z,8.40
2018-09-23T22:16:15.356Z,8.40
2018-09-23T22:18:43.846Z,8.40
2018-09-23T22:21:12.365Z,8.40
2018-09-23T22:23:40.872Z,8.40
2018-09-23T22:26:09.358Z,8.40
2018-09-23T22:28:37.906Z,8.40
2018-09-23T22:31:06.622Z,8.40
2018-09-23T22:33:35.160Z,8.40
2018-09-23T22:36:03.628Z,8.40
2018-09-23T22:38:32.101Z,8.40
2018-09-23T22:41:00.662Z,8.40
2018-09-23T22:43:29.245Z,8.30
2018-09-23T22:45:57.786Z,8.30
2018-09-23T22:48:26.261Z,8.30
2018-09-23T22:50:54.766Z,8.30
2018-09-23T22:53:23.323Z,8.30
2018-09-23T22:55:52.458Z,8.30
2018-09-23T22:58:20.981Z,8.30
2018-09-23T23:00:49.572Z,8.40
2018-09-23T23:03:18.147Z,8.40
2018-09-23T23:05:46.631Z,8.50
2018-09-23T23:08:15.141Z,8.50
2018-09-23T23:10:43.712Z,8.60
2018-09-23T23:13:12.269Z,8.60
2018-09-23T23:15:40.744Z,8.60
2018-09-23T23:18:09.911Z,8.60
2018-09-23T23:20:38.444Z,8.60
2018-09-23T23:23:06.997Z,8.50
2018-09-23T23:25:35.521Z,8.50
2018-09-23T23:28:04.001Z,8.40
2018-09-23T23:30:32.489Z,8.40
2018-09-23T23:33:00.994Z,8.30
2018-09-23T23:35:29.485Z,8.30
2018-09-23T23:37:57.969Z,8.30
2018-09-23T23:40:26.465Z,8.20
2018-09-23T23:42:55.026Z,8.20
2018-09-23T23:45:23.566Z,8.20
2018-09-23T23:47:52.050Z,8.20
2018-09-23T23:50:21.500Z,8.20
2018-09-23T23:52:50.078Z,8.10
2018-09-23T23:55:18.591Z,8.10
2018-09-23T23:57:47.077Z,8.10
